sensor_id;sensor_type;location;lat;lon;timestamp;P1;durP1;ratioP1;P2;durP2;ratioP2
6117;SDS011;3089;48.202;11.510;2022-12-17T00:01:14;22.60;;;10.83;;
6117;SDS011;3089;48.202;11.510;2022-12-17T00:04:00;24.37;;;12.20;;
6117;SDS011;3089;48.202;11.510;2022-12-17T00:06:45;22.00;;;10.70;;
6117;SDS011;3089;48.202;11.510;2022-12-17T00:09:31;22.30;;;11.50;;
6117;SDS011;3089;48.202;11.510;2022-12-17T00:12:16;22.77;;;10.93;;
6117;SDS011;3089;48.202;11.510;2022-12-17T00:15:04;24.00;;;11.80;;
6117;SDS011;3089;48.202;11.510;2022-12-17T00:17:49;23.27;;;11.67;;
6117;SDS011;3089;48.202;11.510;2022-12-17T00:20:35;24.03;;;11.80;;
6117;SDS011;3089;48.202;11.510;2022-12-17T00:23:21;20.93;;;11.70;;
6117;SDS011;3089;48.202;11.510;2022-12-17T00:26:07;26.03;;;11.07;;
6117;SDS011;3089;48.202;11.510;2022-12-17T00:28:52;23.77;;;11.50;;
6117;SDS011;3089;48.202;11.510;2022-12-17T00:31:39;21.93;;;10.23;;
6117;SDS011;3089;48.202;11.510;2022-12-17T00:34:24;21.00;;;10.80;;
6117;SDS011;3089;48.202;11.510;2022-12-17T00:37:10;24.83;;;11.73;;
6117;SDS011;3089;48.202;11.510;2022-12-17T00:39:55;23.30;;;11.20;;
6117;SDS011;3089;48.202;11.510;2022-12-17T00:42:43;27.87;;;12.97;;
6117;SDS011;3089;48.202;11.510;2022-12-17T00:45:29;25.27;;;11.70;;
6117;SDS011;3089;48.202;11.510;2022-12-17T00:48:15;23.63;;;11.43;;
6117;SDS011;3089;48.202;11.510;2022-12-17T00:51:01;22.97;;;12.37;;
6117;SDS011;3089;48.202;11.510;2022-12-17T00:53:47;25.00;;;12.90;;
6117;SDS011;3089;48.202;11.510;2022-12-17T00:56:32;23.30;;;11.70;;
6117;SDS011;3089;48.202;11.510;2022-12-17T00:59:21;20.20;;;10.73;;
6117;SDS011;3089;48.202;11.510;2022-12-17T01:02:06;28.33;;;12.40;;
6117;SDS011;3089;48.202;11.510;2022-12-17T01:04:53;21.53;;;10.93;;
6117;SDS011;3089;48.202;11.510;2022-12-17T01:07:38;21.37;;;10.57;;
6117;SDS011;3089;48.202;11.510;2022-12-17T01:10:24;20.53;;;10.97;;
6117;SDS011;3089;48.202;11.510;2022-12-17T01:13:11;24.37;;;12.40;;
6117;SDS011;3089;48.202;11.510;2022-12-17T01:16:00;26.60;;;12.70;;
6117;SDS011;3089;48.202;11.510;2022-12-17T01:18:47;24.60;;;11.80;;
6117;SDS011;3089;48.202;11.510;2022-12-17T01:21:33;23.83;;;11.97;;
6117;SDS011;3089;48.202;11.510;2022-12-17T01:24:21;24.00;;;11.90;;
6117;SDS011;3089;48.202;11.510;2022-12-17T01:27:07;27.90;;;12.80;;
6117;SDS011;3089;48.202;11.510;2022-12-17T01:29:53;24.93;;;11.80;;
6117;SDS011;3089;48.202;11.510;2022-12-17T01:32:38;22.80;;;11.77;;
6117;SDS011;3089;48.202;11.510;2022-12-17T01:35:24;24.47;;;11.67;;
6117;SDS011;3089;48.202;11.510;2022-12-17T01:38:11;26.10;;;12.37;;
6117;SDS011;3089;48.202;11.510;2022-12-17T01:40:57;23.03;;;10.87;;
6117;SDS011;3089;48.202;11.510;2022-12-17T01:43:43;27.93;;;12.17;;
6117;SDS011;3089;48.202;11.510;2022-12-17T01:46:29;22.10;;;11.43;;
6117;SDS011;3089;48.202;11.510;2022-12-17T01:49:18;23.33;;;11.93;;
6117;SDS011;3089;48.202;11.510;2022-12-17T01:52:06;27.37;;;11.90;;
6117;SDS011;3089;48.202;11.510;2022-12-17T01:54:55;25.73;;;11.20;;
6117;SDS011;3089;48.202;11.510;2022-12-17T01:57:41;25.93;;;12.47;;
6117;SDS011;3089;48.202;11.510;2022-12-17T02:00:26;24.30;;;12.87;;
6117;SDS011;3089;48.202;11.510;2022-12-17T02:03:12;25.17;;;12.50;;
6117;SDS011;3089;48.202;11.510;2022-12-17T02:06:00;24.30;;;12.30;;
6117;SDS011;3089;48.202;11.510;2022-12-17T02:08:52;27.30;;;11.87;;
6117;SDS011;3089;48.202;11.510;2022-12-17T02:11:43;25.53;;;12.40;;
6117;SDS011;3089;48.202;11.510;2022-12-17T02:14:37;23.40;;;11.83;;
6117;SDS011;3089;48.202;11.510;2022-12-17T02:17:29;27.77;;;11.60;;
6117;SDS011;3089;48.202;11.510;2022-12-17T02:20:23;24.50;;;12.37;;
6117;SDS011;3089;48.202;11.510;2022-12-17T02:23:17;21.33;;;11.57;;
6117;SDS011;3089;48.202;11.510;2022-12-17T02:26:14;24.10;;;12.00;;
6117;SDS011;3089;48.202;11.510;2022-12-17T02:29:05;25.83;;;12.33;;
6117;SDS011;3089;48.202;11.510;2022-12-17T02:31:52;20.60;;;11.57;;
6117;SDS011;3089;48.202;11.510;2022-12-17T02:34:44;26.13;;;13.23;;
6117;SDS011;3089;48.202;11.510;2022-12-17T02:37:30;24.40;;;13.03;;
6117;SDS011;3089;48.202;11.510;2022-12-17T02:40:16;21.63;;;10.33;;
6117;SDS011;3089;48.202;11.510;2022-12-17T02:43:03;18.90;;;10.70;;
6117;SDS011;3089;48.202;11.510;2022-12-17T02:45:53;24.33;;;11.90;;
6117;SDS011;3089;48.202;11.510;2022-12-17T02:48:40;20.63;;;10.90;;
6117;SDS011;3089;48.202;11.510;2022-12-17T02:51:25;23.00;;;12.57;;
6117;SDS011;3089;48.202;11.510;2022-12-17T02:54:11;24.90;;;12.43;;
6117;SDS011;3089;48.202;11.510;2022-12-17T02:56:57;23.70;;;12.23;;
6117;SDS011;3089;48.202;11.510;2022-12-17T02:59:42;25.73;;;12.33;;
6117;SDS011;3089;48.202;11.510;2022-12-17T03:02:28;24.80;;;11.60;;
6117;SDS011;3089;48.202;11.510;2022-12-17T03:05:14;23.40;;;12.37;;
6117;SDS011;3089;48.202;11.510;2022-12-17T03:08:15;25.80;;;13.40;;
6117;SDS011;3089;48.202;11.510;2022-12-17T03:11:00;24.90;;;12.50;;
6117;SDS011;3089;48.202;11.510;2022-12-17T03:13:46;27.77;;;11.90;;
6117;SDS011;3089;48.202;11.510;2022-12-17T03:16:31;25.83;;;12.50;;
6117;SDS011;3089;48.202;11.510;2022-12-17T03:19:21;26.70;;;12.97;;
6117;SDS011;3089;48.202;11.510;2022-12-17T03:22:07;25.17;;;12.33;;
6117;SDS011;3089;48.202;11.510;2022-12-17T03:24:52;24.70;;;11.60;;
6117;SDS011;3089;48.202;11.510;2022-12-17T03:27:38;19.57;;;11.30;;
6117;SDS011;3089;48.202;11.510;2022-12-17T03:30:23;27.80;;;13.47;;
6117;SDS011;3089;48.202;11.510;2022-12-17T03:33:14;23.87;;;12.47;;
6117;SDS011;3089;48.202;11.510;2022-12-17T03:36:01;26.97;;;13.53;;
6117;SDS011;3089;48.202;11.510;2022-12-17T03:38:47;27.10;;;12.67;;
6117;SDS011;3089;48.202;11.510;2022-12-17T03:41:32;24.37;;;13.07;;
6117;SDS011;3089;48.202;11.510;2022-12-17T03:44:18;20.23;;;11.13;;
6117;SDS011;3089;48.202;11.510;2022-12-17T03:47:03;29.30;;;12.00;;
6117;SDS011;3089;48.202;11.510;2022-12-17T03:49:49;26.30;;;13.67;;
6117;SDS011;3089;48.202;11.510;2022-12-17T03:52:35;25.17;;;13.00;;
6117;SDS011;3089;48.202;11.510;2022-12-17T03:55:21;28.63;;;12.57;;
6117;SDS011;3089;48.202;11.510;2022-12-17T03:58:06;29.40;;;13.50;;
6117;SDS011;3089;48.202;11.510;2022-12-17T04:00:52;22.97;;;12.83;;
6117;SDS011;3089;48.202;11.510;2022-12-17T04:03:37;21.97;;;11.00;;
6117;SDS011;3089;48.202;11.510;2022-12-17T04:06:23;28.93;;;12.93;;
6117;SDS011;3089;48.202;11.510;2022-12-17T04:09:09;26.10;;;12.40;;
6117;SDS011;3089;48.202;11.510;2022-12-17T04:11:55;25.30;;;11.73;;
6117;SDS011;3089;48.202;11.510;2022-12-17T04:14:40;36.00;;;13.33;;
6117;SDS011;3089;48.202;11.510;2022-12-17T04:17:26;24.70;;;11.53;;
6117;SDS011;3089;48.202;11.510;2022-12-17T04:20:11;24.23;;;11.73;;
6117;SDS011;3089;48.202;11.510;2022-12-17T04:22:59;29.03;;;13.50;;
6117;SDS011;3089;48.202;11.510;2022-12-17T04:25:45;27.83;;;13.07;;
6117;SDS011;3089;48.202;11.510;2022-12-17T04:28:31;28.43;;;12.70;;
6117;SDS011;3089;48.202;11.510;2022-12-17T04:31:16;29.37;;;11.67;;
6117;SDS011;3089;48.202;11.510;2022-12-17T04:34:01;27.67;;;13.10;;
6117;SDS011;3089;48.202;11.510;2022-12-17T04:36:47;20.40;;;10.97;;
6117;SDS011;3089;48.202;11.510;2022-12-17T04:39:32;24.43;;;13.40;;
6117;SDS011;3089;48.202;11.510;2022-12-17T04:42:19;23.80;;;12.37;;
6117;SDS011;3089;48.202;11.510;2022-12-17T04:45:05;21.80;;;11.20;;
6117;SDS011;3089;48.202;11.510;2022-12-17T04:47:58;18.97;;;10.03;;
6117;SDS011;3089;48.202;11.510;2022-12-17T04:50:44;28.23;;;13.27;;
6117;SDS011;3089;48.202;11.510;2022-12-17T04:53:30;20.63;;;10.83;;
6117;SDS011;3089;48.202;11.510;2022-12-17T04:56:15;20.23;;;10.07;;
6117;SDS011;3089;48.202;11.510;2022-12-17T04:59:02;21.97;;;10.90;;
6117;SDS011;3089;48.202;11.510;2022-12-17T05:01:47;17.80;;;9.77;;
6117;SDS011;3089;48.202;11.510;2022-12-17T05:04:33;29.70;;;12.90;;
6117;SDS011;3089;48.202;11.510;2022-12-17T05:07:18;24.07;;;11.47;;
6117;SDS011;3089;48.202;11.510;2022-12-17T05:10:04;23.57;;;11.50;;
6117;SDS011;3089;48.202;11.510;2022-12-17T05:12:54;22.43;;;10.80;;
6117;SDS011;3089;48.202;11.510;2022-12-17T05:15:42;24.10;;;13.13;;
6117;SDS011;3089;48.202;11.510;2022-12-17T05:18:28;24.83;;;11.70;;
6117;SDS011;3089;48.202;11.510;2022-12-17T05:21:13;24.07;;;12.20;;
6117;SDS011;3089;48.202;11.510;2022-12-17T05:23:59;22.40;;;12.33;;
6117;SDS011;3089;48.202;11.510;2022-12-17T05:26:44;28.57;;;13.70;;
6117;SDS011;3089;48.202;11.510;2022-12-17T05:29:30;27.17;;;13.03;;
6117;SDS011;3089;48.202;11.510;2022-12-17T05:32:16;25.87;;;12.60;;
6117;SDS011;3089;48.202;11.510;2022-12-17T05:35:02;28.50;;;12.50;;
6117;SDS011;3089;48.202;11.510;2022-12-17T05:37:48;32.37;;;12.47;;
6117;SDS011;3089;48.202;11.510;2022-12-17T05:40:33;25.97;;;13.13;;
6117;SDS011;3089;48.202;11.510;2022-12-17T05:43:19;27.47;;;12.43;;
6117;SDS011;3089;48.202;11.510;2022-12-17T05:46:05;29.93;;;13.50;;
6117;SDS011;3089;48.202;11.510;2022-12-17T05:48:51;25.80;;;12.00;;
6117;SDS011;3089;48.202;11.510;2022-12-17T05:51:36;23.97;;;13.50;;
6117;SDS011;3089;48.202;11.510;2022-12-17T05:54:21;27.60;;;14.07;;
6117;SDS011;3089;48.202;11.510;2022-12-17T05:57:07;27.60;;;13.17;;
6117;SDS011;3089;48.202;11.510;2022-12-17T05:59:52;27.67;;;13.70;;
6117;SDS011;3089;48.202;11.510;2022-12-17T06:02:38;23.73;;;12.03;;
6117;SDS011;3089;48.202;11.510;2022-12-17T06:05:25;25.87;;;11.53;;
6117;SDS011;3089;48.202;11.510;2022-12-17T06:08:10;27.20;;;13.47;;
6117;SDS011;3089;48.202;11.510;2022-12-17T06:10:57;24.43;;;12.70;;
6117;SDS011;3089;48.202;11.510;2022-12-17T06:13:44;24.80;;;12.60;;
6117;SDS011;3089;48.202;11.510;2022-12-17T06:16:30;25.00;;;12.87;;
6117;SDS011;3089;48.202;11.510;2022-12-17T06:19:16;22.90;;;11.60;;
6117;SDS011;3089;48.202;11.510;2022-12-17T06:22:02;22.53;;;11.53;;
6117;SDS011;3089;48.202;11.510;2022-12-17T06:24:48;27.03;;;12.63;;
6117;SDS011;3089;48.202;11.510;2022-12-17T06:27:33;23.73;;;12.20;;
6117;SDS011;3089;48.202;11.510;2022-12-17T06:30:19;22.30;;;11.47;;
6117;SDS011;3089;48.202;11.510;2022-12-17T06:33:04;23.40;;;11.63;;
6117;SDS011;3089;48.202;11.510;2022-12-17T06:35:50;24.00;;;11.90;;
6117;SDS011;3089;48.202;11.510;2022-12-17T06:38:46;27.47;;;12.00;;
6117;SDS011;3089;48.202;11.510;2022-12-17T06:41:31;27.03;;;13.20;;
6117;SDS011;3089;48.202;11.510;2022-12-17T06:44:17;29.00;;;12.30;;
6117;SDS011;3089;48.202;11.510;2022-12-17T06:47:02;26.67;;;12.20;;
6117;SDS011;3089;48.202;11.510;2022-12-17T06:49:48;24.37;;;11.90;;
6117;SDS011;3089;48.202;11.510;2022-12-17T06:52:33;21.87;;;11.20;;
6117;SDS011;3089;48.202;11.510;2022-12-17T06:55:20;26.33;;;12.17;;
6117;SDS011;3089;48.202;11.510;2022-12-17T06:58:07;29.37;;;12.27;;
6117;SDS011;3089;48.202;11.510;2022-12-17T07:00:53;21.70;;;12.07;;
6117;SDS011;3089;48.202;11.510;2022-12-17T07:03:38;23.57;;;13.00;;
6117;SDS011;3089;48.202;11.510;2022-12-17T07:06:23;26.27;;;12.37;;
6117;SDS011;3089;48.202;11.510;2022-12-17T07:09:09;27.90;;;14.73;;
6117;SDS011;3089;48.202;11.510;2022-12-17T07:11:55;26.97;;;12.70;;
6117;SDS011;3089;48.202;11.510;2022-12-17T07:14:41;25.57;;;13.30;;
6117;SDS011;3089;48.202;11.510;2022-12-17T07:17:41;32.63;;;14.67;;
6117;SDS011;3089;48.202;11.510;2022-12-17T07:20:26;30.57;;;12.67;;
6117;SDS011;3089;48.202;11.510;2022-12-17T07:23:12;31.87;;;13.20;;
6117;SDS011;3089;48.202;11.510;2022-12-17T07:25:57;27.00;;;12.77;;
6117;SDS011;3089;48.202;11.510;2022-12-17T07:28:44;21.67;;;11.43;;
6117;SDS011;3089;48.202;11.510;2022-12-17T07:31:30;23.63;;;12.53;;
6117;SDS011;3089;48.202;11.510;2022-12-17T07:34:15;25.77;;;12.13;;
6117;SDS011;3089;48.202;11.510;2022-12-17T07:37:00;24.90;;;12.40;;
6117;SDS011;3089;48.202;11.510;2022-12-17T07:39:46;26.43;;;13.03;;
6117;SDS011;3089;48.202;11.510;2022-12-17T07:42:31;28.03;;;12.37;;
6117;SDS011;3089;48.202;11.510;2022-12-17T07:45:18;27.37;;;13.70;;
6117;SDS011;3089;48.202;11.510;2022-12-17T07:48:04;22.07;;;11.53;;
6117;SDS011;3089;48.202;11.510;2022-12-17T07:50:50;26.00;;;12.43;;
6117;SDS011;3089;48.202;11.510;2022-12-17T07:53:35;20.70;;;11.43;;
6117;SDS011;3089;48.202;11.510;2022-12-17T07:56:20;27.20;;;12.50;;
6117;SDS011;3089;48.202;11.510;2022-12-17T07:59:06;23.13;;;11.07;;
6117;SDS011;3089;48.202;11.510;2022-12-17T08:01:53;25.37;;;13.60;;
6117;SDS011;3089;48.202;11.510;2022-12-17T08:04:39;30.13;;;14.43;;
6117;SDS011;3089;48.202;11.510;2022-12-17T08:07:24;40.50;;;14.97;;
6117;SDS011;3089;48.202;11.510;2022-12-17T08:10:10;28.50;;;12.63;;
6117;SDS011;3089;48.202;11.510;2022-12-17T08:12:55;27.87;;;14.57;;
6117;SDS011;3089;48.202;11.510;2022-12-17T08:15:42;26.33;;;13.03;;
6117;SDS011;3089;48.202;11.510;2022-12-17T08:18:29;27.00;;;13.67;;
6117;SDS011;3089;48.202;11.510;2022-12-17T08:21:14;23.30;;;13.03;;
6117;SDS011;3089;48.202;11.510;2022-12-17T08:24:00;30.50;;;13.40;;
6117;SDS011;3089;48.202;11.510;2022-12-17T08:26:45;24.47;;;13.43;;
6117;SDS011;3089;48.202;11.510;2022-12-17T08:29:30;29.00;;;13.70;;
6117;SDS011;3089;48.202;11.510;2022-12-17T08:32:16;30.10;;;14.17;;
6117;SDS011;3089;48.202;11.510;2022-12-17T08:35:04;25.00;;;11.40;;
6117;SDS011;3089;48.202;11.510;2022-12-17T08:37:49;21.07;;;11.73;;
6117;SDS011;3089;48.202;11.510;2022-12-17T08:40:34;26.20;;;12.57;;
6117;SDS011;3089;48.202;11.510;2022-12-17T08:43:20;29.07;;;13.97;;
6117;SDS011;3089;48.202;11.510;2022-12-17T08:46:05;27.13;;;13.63;;
6117;SDS011;3089;48.202;11.510;2022-12-17T08:48:51;25.10;;;11.67;;
6117;SDS011;3089;48.202;11.510;2022-12-17T08:51:40;24.00;;;11.60;;
6117;SDS011;3089;48.202;11.510;2022-12-17T08:54:25;30.73;;;13.50;;
6117;SDS011;3089;48.202;11.510;2022-12-17T08:57:11;22.73;;;12.43;;
6117;SDS011;3089;48.202;11.510;2022-12-17T09:00:08;24.83;;;11.80;;
6117;SDS011;3089;48.202;11.510;2022-12-17T09:02:57;25.50;;;12.80;;
6117;SDS011;3089;48.202;11.510;2022-12-17T09:05:42;28.17;;;12.80;;
6117;SDS011;3089;48.202;11.510;2022-12-17T09:08:29;22.17;;;13.30;;
6117;SDS011;3089;48.202;11.510;2022-12-17T09:11:15;28.57;;;13.73;;
6117;SDS011;3089;48.202;11.510;2022-12-17T09:14:00;30.93;;;13.00;;
6117;SDS011;3089;48.202;11.510;2022-12-17T09:16:46;30.80;;;13.17;;
6117;SDS011;3089;48.202;11.510;2022-12-17T09:19:31;24.97;;;11.10;;
6117;SDS011;3089;48.202;11.510;2022-12-17T09:22:17;24.67;;;12.00;;
6117;SDS011;3089;48.202;11.510;2022-12-17T09:25:04;20.13;;;9.87;;
6117;SDS011;3089;48.202;11.510;2022-12-17T09:27:50;23.97;;;12.30;;
6117;SDS011;3089;48.202;11.510;2022-12-17T09:30:35;25.20;;;11.60;;
6117;SDS011;3089;48.202;11.510;2022-12-17T09:33:21;22.07;;;11.23;;
6117;SDS011;3089;48.202;11.510;2022-12-17T09:36:07;25.80;;;12.47;;
6117;SDS011;3089;48.202;11.510;2022-12-17T09:38:53;25.13;;;12.53;;
6117;SDS011;3089;48.202;11.510;2022-12-17T09:41:41;23.33;;;11.87;;
6117;SDS011;3089;48.202;11.510;2022-12-17T09:44:34;22.10;;;12.37;;
6117;SDS011;3089;48.202;11.510;2022-12-17T09:47:28;24.47;;;12.90;;
6117;SDS011;3089;48.202;11.510;2022-12-17T09:50:21;23.73;;;12.50;;
6117;SDS011;3089;48.202;11.510;2022-12-17T09:53:08;29.30;;;13.83;;
6117;SDS011;3089;48.202;11.510;2022-12-17T09:56:11;30.77;;;13.80;;
6117;SDS011;3089;48.202;11.510;2022-12-17T09:59:00;24.00;;;13.47;;
6117;SDS011;3089;48.202;11.510;2022-12-17T10:01:45;28.43;;;12.97;;
6117;SDS011;3089;48.202;11.510;2022-12-17T10:04:31;25.47;;;11.77;;
6117;SDS011;3089;48.202;11.510;2022-12-17T10:07:19;24.33;;;13.50;;
6117;SDS011;3089;48.202;11.510;2022-12-17T10:10:13;26.37;;;14.00;;
6117;SDS011;3089;48.202;11.510;2022-12-17T10:13:06;30.43;;;12.67;;
6117;SDS011;3089;48.202;11.510;2022-12-17T10:15:55;26.50;;;14.00;;
6117;SDS011;3089;48.202;11.510;2022-12-17T10:18:41;28.80;;;13.60;;
6117;SDS011;3089;48.202;11.510;2022-12-17T10:21:26;34.67;;;14.83;;
6117;SDS011;3089;48.202;11.510;2022-12-17T10:24:12;27.43;;;12.70;;
6117;SDS011;3089;48.202;11.510;2022-12-17T10:27:10;30.70;;;14.23;;
6117;SDS011;3089;48.202;11.510;2022-12-17T10:30:00;30.47;;;14.27;;
6117;SDS011;3089;48.202;11.510;2022-12-17T10:32:54;34.73;;;14.47;;
6117;SDS011;3089;48.202;11.510;2022-12-17T10:35:42;28.77;;;13.57;;
6117;SDS011;3089;48.202;11.510;2022-12-17T10:38:32;25.17;;;13.30;;
6117;SDS011;3089;48.202;11.510;2022-12-17T10:41:19;29.70;;;13.30;;
6117;SDS011;3089;48.202;11.510;2022-12-17T10:44:19;32.70;;;13.13;;
6117;SDS011;3089;48.202;11.510;2022-12-17T10:47:08;26.83;;;13.50;;
6117;SDS011;3089;48.202;11.510;2022-12-17T10:49:57;25.33;;;12.80;;
6117;SDS011;3089;48.202;11.510;2022-12-17T10:52:43;36.17;;;15.60;;
6117;SDS011;3089;48.202;11.510;2022-12-17T10:55:30;32.23;;;14.73;;
6117;SDS011;3089;48.202;11.510;2022-12-17T10:58:18;32.27;;;14.20;;
6117;SDS011;3089;48.202;11.510;2022-12-17T11:01:05;34.00;;;14.00;;
6117;SDS011;3089;48.202;11.510;2022-12-17T11:03:54;26.73;;;13.50;;
6117;SDS011;3089;48.202;11.510;2022-12-17T11:06:43;26.80;;;13.73;;
6117;SDS011;3089;48.202;11.510;2022-12-17T11:09:31;26.03;;;12.80;;
6117;SDS011;3089;48.202;11.510;2022-12-17T11:12:38;27.67;;;13.40;;
6117;SDS011;3089;48.202;11.510;2022-12-17T11:15:29;27.00;;;14.43;;
6117;SDS011;3089;48.202;11.510;2022-12-17T11:18:19;25.67;;;14.30;;
6117;SDS011;3089;48.202;11.510;2022-12-17T11:21:09;31.13;;;15.23;;
6117;SDS011;3089;48.202;11.510;2022-12-17T11:24:00;33.70;;;15.10;;
6117;SDS011;3089;48.202;11.510;2022-12-17T11:26:49;27.87;;;14.87;;
6117;SDS011;3089;48.202;11.510;2022-12-17T11:29:37;28.20;;;15.00;;
6117;SDS011;3089;48.202;11.510;2022-12-17T11:32:29;32.07;;;15.17;;
6117;SDS011;3089;48.202;11.510;2022-12-17T11:35:32;48.90;;;16.23;;
6117;SDS011;3089;48.202;11.510;2022-12-17T11:38:28;31.77;;;16.33;;
6117;SDS011;3089;48.202;11.510;2022-12-17T11:41:20;32.03;;;15.30;;
6117;SDS011;3089;48.202;11.510;2022-12-17T11:44:22;28.73;;;15.80;;
6117;SDS011;3089;48.202;11.510;2022-12-17T11:47:17;26.30;;;14.20;;
6117;SDS011;3089;48.202;11.510;2022-12-17T11:50:12;33.13;;;14.30;;
6117;SDS011;3089;48.202;11.510;2022-12-17T11:53:05;32.93;;;15.23;;
6117;SDS011;3089;48.202;11.510;2022-12-17T11:56:04;27.57;;;15.47;;
6117;SDS011;3089;48.202;11.510;2022-12-17T11:59:01;23.77;;;14.40;;
6117;SDS011;3089;48.202;11.510;2022-12-17T12:01:55;28.40;;;14.97;;
6117;SDS011;3089;48.202;11.510;2022-12-17T12:04:58;28.33;;;15.47;;
6117;SDS011;3089;48.202;11.510;2022-12-17T12:08:06;31.50;;;16.83;;
6117;SDS011;3089;48.202;11.510;2022-12-17T12:10:56;29.63;;;14.93;;
6117;SDS011;3089;48.202;11.510;2022-12-17T12:13:57;28.70;;;14.90;;
6117;SDS011;3089;48.202;11.510;2022-12-17T12:16:52;29.17;;;14.53;;
6117;SDS011;3089;48.202;11.510;2022-12-17T12:19:45;26.70;;;13.60;;
6117;SDS011;3089;48.202;11.510;2022-12-17T12:22:36;28.20;;;14.60;;
6117;SDS011;3089;48.202;11.510;2022-12-17T12:25:29;30.10;;;14.50;;
6117;SDS011;3089;48.202;11.510;2022-12-17T12:28:23;25.80;;;14.23;;
6117;SDS011;3089;48.202;11.510;2022-12-17T12:31:19;24.93;;;13.03;;
6117;SDS011;3089;48.202;11.510;2022-12-17T12:34:16;28.43;;;15.57;;
6117;SDS011;3089;48.202;11.510;2022-12-17T12:37:05;26.87;;;13.17;;
6117;SDS011;3089;48.202;11.510;2022-12-17T12:39:58;29.57;;;14.17;;
6117;SDS011;3089;48.202;11.510;2022-12-17T12:42:49;30.00;;;16.17;;
6117;SDS011;3089;48.202;11.510;2022-12-17T12:45:54;27.77;;;15.10;;
6117;SDS011;3089;48.202;11.510;2022-12-17T12:48:49;26.03;;;14.93;;
6117;SDS011;3089;48.202;11.510;2022-12-17T12:51:40;34.40;;;15.23;;
6117;SDS011;3089;48.202;11.510;2022-12-17T12:54:28;33.50;;;15.40;;
6117;SDS011;3089;48.202;11.510;2022-12-17T12:57:24;29.27;;;15.40;;
6117;SDS011;3089;48.202;11.510;2022-12-17T13:00:20;28.33;;;14.90;;
6117;SDS011;3089;48.202;11.510;2022-12-17T13:03:22;32.13;;;15.07;;
6117;SDS011;3089;48.202;11.510;2022-12-17T13:06:11;32.47;;;16.57;;
6117;SDS011;3089;48.202;11.510;2022-12-17T13:08:41;31.93;;;14.93;;
6117;SDS011;3089;48.202;11.510;2022-12-17T13:11:10;32.07;;;15.47;;
6117;SDS011;3089;48.202;11.510;2022-12-17T13:13:52;27.60;;;13.03;;
6117;SDS011;3089;48.202;11.510;2022-12-17T13:16:29;36.23;;;14.33;;
6117;SDS011;3089;48.202;11.510;2022-12-17T13:19:00;26.43;;;13.93;;
6117;SDS011;3089;48.202;11.510;2022-12-17T13:21:30;30.70;;;15.27;;
6117;SDS011;3089;48.202;11.510;2022-12-17T13:24:08;27.50;;;14.40;;
6117;SDS011;3089;48.202;11.510;2022-12-17T13:26:42;29.33;;;14.03;;
6117;SDS011;3089;48.202;11.510;2022-12-17T13:29:12;27.53;;;13.40;;
6117;SDS011;3089;48.202;11.510;2022-12-17T13:31:54;29.57;;;14.60;;
6117;SDS011;3089;48.202;11.510;2022-12-17T13:34:38;24.20;;;13.40;;
6117;SDS011;3089;48.202;11.510;2022-12-17T13:37:18;25.10;;;13.50;;
6117;SDS011;3089;48.202;11.510;2022-12-17T13:39:57;33.37;;;15.07;;
6117;SDS011;3089;48.202;11.510;2022-12-17T13:42:37;29.17;;;15.50;;
6117;SDS011;3089;48.202;11.510;2022-12-17T13:45:05;34.57;;;16.73;;
6117;SDS011;3089;48.202;11.510;2022-12-17T13:47:34;30.03;;;15.00;;
6117;SDS011;3089;48.202;11.510;2022-12-17T13:50:17;28.90;;;14.27;;
6117;SDS011;3089;48.202;11.510;2022-12-17T13:53:10;32.80;;;14.80;;
6117;SDS011;3089;48.202;11.510;2022-12-17T13:55:38;35.50;;;16.63;;
6117;SDS011;3089;48.202;11.510;2022-12-17T13:58:17;34.63;;;15.67;;
6117;SDS011;3089;48.202;11.510;2022-12-17T14:00:51;34.67;;;16.33;;
6117;SDS011;3089;48.202;11.510;2022-12-17T14:03:29;28.43;;;15.30;;
6117;SDS011;3089;48.202;11.510;2022-12-17T14:06:17;29.77;;;14.67;;
6117;SDS011;3089;48.202;11.510;2022-12-17T14:08:48;28.10;;;13.83;;
6117;SDS011;3089;48.202;11.510;2022-12-17T14:11:18;30.87;;;15.90;;
6117;SDS011;3089;48.202;11.510;2022-12-17T14:14:07;37.60;;;15.47;;
6117;SDS011;3089;48.202;11.510;2022-12-17T14:16:39;32.17;;;16.33;;
6117;SDS011;3089;48.202;11.510;2022-12-17T14:19:15;32.20;;;16.37;;
6117;SDS011;3089;48.202;11.510;2022-12-17T14:21:43;30.43;;;14.63;;
6117;SDS011;3089;48.202;11.510;2022-12-17T14:24:13;27.00;;;12.87;;
6117;SDS011;3089;48.202;11.510;2022-12-17T14:26:46;35.00;;;15.57;;
6117;SDS011;3089;48.202;11.510;2022-12-17T14:29:20;33.37;;;15.00;;
6117;SDS011;3089;48.202;11.510;2022-12-17T14:31:52;32.97;;;16.57;;
6117;SDS011;3089;48.202;11.510;2022-12-17T14:34:22;31.93;;;16.27;;
6117;SDS011;3089;48.202;11.510;2022-12-17T14:36:54;32.33;;;15.60;;
6117;SDS011;3089;48.202;11.510;2022-12-17T14:39:25;30.83;;;14.60;;
6117;SDS011;3089;48.202;11.510;2022-12-17T14:41:55;31.67;;;15.87;;
6117;SDS011;3089;48.202;11.510;2022-12-17T14:44:49;31.00;;;16.57;;
6117;SDS011;3089;48.202;11.510;2022-12-17T14:47:19;35.73;;;16.40;;
6117;SDS011;3089;48.202;11.510;2022-12-17T14:49:54;29.37;;;15.90;;
6117;SDS011;3089;48.202;11.510;2022-12-17T14:52:31;35.50;;;16.13;;
6117;SDS011;3089;48.202;11.510;2022-12-17T14:55:22;35.70;;;16.60;;
6117;SDS011;3089;48.202;11.510;2022-12-17T14:58:14;35.33;;;15.70;;
6117;SDS011;3089;48.202;11.510;2022-12-17T15:00:45;34.17;;;16.43;;
6117;SDS011;3089;48.202;11.510;2022-12-17T15:03:17;37.20;;;16.87;;
6117;SDS011;3089;48.202;11.510;2022-12-17T15:05:49;32.10;;;15.43;;
6117;SDS011;3089;48.202;11.510;2022-12-17T15:08:18;32.00;;;16.17;;
6117;SDS011;3089;48.202;11.510;2022-12-17T15:10:48;32.47;;;16.80;;
6117;SDS011;3089;48.202;11.510;2022-12-17T15:13:16;40.63;;;18.07;;
6117;SDS011;3089;48.202;11.510;2022-12-17T15:15:44;39.87;;;18.03;;
6117;SDS011;3089;48.202;11.510;2022-12-17T15:18:12;44.43;;;17.00;;
6117;SDS011;3089;48.202;11.510;2022-12-17T15:20:40;38.67;;;17.57;;
6117;SDS011;3089;48.202;11.510;2022-12-17T15:23:09;35.37;;;16.30;;
6117;SDS011;3089;48.202;11.510;2022-12-17T15:25:41;34.17;;;17.17;;
6117;SDS011;3089;48.202;11.510;2022-12-17T15:28:13;31.57;;;15.70;;
6117;SDS011;3089;48.202;11.510;2022-12-17T15:30:42;28.17;;;14.20;;
6117;SDS011;3089;48.202;11.510;2022-12-17T15:33:10;26.10;;;13.63;;
6117;SDS011;3089;48.202;11.510;2022-12-17T15:35:39;27.77;;;13.73;;
6117;SDS011;3089;48.202;11.510;2022-12-17T15:38:06;30.63;;;13.23;;
6117;SDS011;3089;48.202;11.510;2022-12-17T15:40:35;30.27;;;14.03;;
6117;SDS011;3089;48.202;11.510;2022-12-17T15:43:03;31.93;;;15.33;;
6117;SDS011;3089;48.202;11.510;2022-12-17T15:45:41;29.30;;;13.63;;
6117;SDS011;3089;48.202;11.510;2022-12-17T15:48:10;21.67;;;11.63;;
6117;SDS011;3089;48.202;11.510;2022-12-17T15:50:41;21.83;;;10.60;;
6117;SDS011;3089;48.202;11.510;2022-12-17T15:53:09;19.33;;;10.27;;
6117;SDS011;3089;48.202;11.510;2022-12-17T15:55:37;20.97;;;11.87;;
6117;SDS011;3089;48.202;11.510;2022-12-17T15:58:05;24.33;;;13.33;;
6117;SDS011;3089;48.202;11.510;2022-12-17T16:00:34;21.00;;;10.90;;
6117;SDS011;3089;48.202;11.510;2022-12-17T16:03:03;25.57;;;10.93;;
6117;SDS011;3089;48.202;11.510;2022-12-17T16:05:31;25.10;;;11.07;;
6117;SDS011;3089;48.202;11.510;2022-12-17T16:07:59;29.00;;;13.03;;
6117;SDS011;3089;48.202;11.510;2022-12-17T16:10:28;26.10;;;13.70;;
6117;SDS011;3089;48.202;11.510;2022-12-17T16:12:56;26.83;;;13.30;;
6117;SDS011;3089;48.202;11.510;2022-12-17T16:15:24;26.60;;;14.13;;
6117;SDS011;3089;48.202;11.510;2022-12-17T16:17:51;30.97;;;14.63;;
6117;SDS011;3089;48.202;11.510;2022-12-17T16:20:21;31.20;;;14.73;;